Time;durP1;ratioP1;P1;durP2;ratioP2;P2;SDS_P1;SDS_P2;PMS_P1;PMS_P2;Temp;Humidity;BMP_temperature;BMP_pressure;BME280_temperature;BME280_humidity;BME280_pressure;Samples;Min_cycle;Max_cycle;Signal;HPM_P1;HPM_P2
2022/08/31 00:05:59;;;;;;;2.90;1.23;;;16.30;99.90;;;;;;4997266;28;20344;-75
2022/08/31 00:08:27;;;;;;;2.73;1.13;;;16.30;99.90;;;;;;4995965;28;20542;-76
2022/08/31 00:10:54;;;;;;;4.07;1.17;;;16.30;99.90;;;;;;4997176;28;20289;-75
2022/08/31 00:13:21;;;;;;;3.43;1.10;;;16.20;99.90;;;;;;4996813;28;20395;-76
2022/08/31 00:15:48;;;;;;;3.37;1.20;;;16.20;99.90;;;;;;4997068;28;20443;-75
2022/08/31 00:18:14;;;;;;;3.53;1.40;;;16.20;99.90;;;;;;4996889;28;20317;-75
2022/08/31 00:20:41;;;;;;;4.53;1.30;;;16.10;99.90;;;;;;4996745;28;20290;-75
2022/08/31 00:23:10;;;;;;;5.03;1.40;;;16.10;99.90;;;;;;4997390;28;20285;-75
2022/08/31 00:25:38;;;;;;;3.20;1.57;;;16.10;99.90;;;;;;4996830;28;20277;-75
2022/08/31 00:28:04;;;;;;;3.17;1.00;;;16.10;99.90;;;;;;4996787;28;20278;-75
2022/08/31 00:30:31;;;;;;;2.50;1.20;;;16.00;99.90;;;;;;4997251;28;20046;-76
2022/08/31 00:32:56;;;;;;;3.20;1.37;;;16.00;99.90;;;;;;4996723;28;20285;-76
2022/08/31 00:35:22;;;;;;;4.57;1.30;;;16.00;99.90;;;;;;4996910;28;20621;-75
2022/08/31 00:37:48;;;;;;;2.87;1.23;;;16.00;99.90;;;;;;4996574;28;20493;-75
2022/08/31 00:40:15;;;;;;;4.43;1.50;;;16.00;99.90;;;;;;4996833;28;20085;-75
2022/08/31 00:42:40;;;;;;;2.93;1.10;;;15.90;99.90;;;;;;4996531;28;20105;-75
2022/08/31 00:45:07;;;;;;;2.83;1.17;;;15.90;99.90;;;;;;4996530;28;20285;-75
2022/08/31 00:47:33;;;;;;;2.13;1.00;;;15.80;99.90;;;;;;4996472;28;20104;-75
2022/08/31 00:50:00;;;;;;;3.10;1.20;;;15.80;99.90;;;;;;4996061;28;20736;-75
2022/08/31 00:52:33;;;;;;;2.93;1.23;;;15.70;99.90;;;;;;4996444;28;20121;-75
2022/08/31 00:55:21;;;;;;;3.63;1.10;;;15.70;99.90;;;;;;4996302;28;20380;-76
2022/08/31 00:57:51;;;;;;;3.83;1.00;;;15.70;99.90;;;;;;4996001;28;20770;-75
2022/08/31 01:00:21;;;;;;;1.27;0.90;;;15.60;99.90;;;;;;4996217;28;20286;-75
2022/08/31 01:02:48;;;;;;;2.27;0.90;;;15.60;99.90;;;;;;4996799;28;20613;-75
2022/08/31 01:05:15;;;;;;;2.43;1.20;;;15.60;99.90;;;;;;4996338;28;20634;-75
2022/08/31 01:07:43;;;;;;;3.03;1.30;;;15.50;99.90;;;;;;4996064;28;20284;-76
2022/08/31 01:10:09;;;;;;;4.63;1.20;;;15.50;99.90;;;;;;4996027;28;20669;-76
2022/08/31 01:12:35;;;;;;;2.17;1.20;;;15.50;99.90;;;;;;4996019;28;20274;-75
2022/08/31 01:15:05;;;;;;;2.70;1.20;;;15.50;99.90;;;;;;4995960;28;20046;-75
2022/08/31 01:17:33;;;;;;;3.40;1.30;;;15.50;99.90;;;;;;4996602;28;20379;-76
2022/08/31 01:20:11;;;;;;;2.87;1.43;;;15.40;99.90;;;;;;4996028;28;20673;-76
2022/08/31 01:22:57;;;;;;;2.43;0.97;;;15.50;99.90;;;;;;4996343;28;20281;-76
2022/08/31 01:25:23;;;;;;;4.07;1.20;;;15.50;99.90;;;;;;4995793;28;20758;-75
2022/08/31 01:27:49;;;;;;;2.97;1.20;;;15.40;99.90;;;;;;4996222;28;20284;-76
2022/08/31 01:30:22;;;;;;;3.97;1.20;;;15.40;99.90;;;;;;4994225;28;20281;-76
2022/08/31 01:32:48;;;;;;;2.57;1.10;;;15.40;99.90;;;;;;4996182;28;20062;-75
2022/08/31 01:35:14;;;;;;;5.27;1.20;;;15.40;99.90;;;;;;4995615;28;20274;-75
2022/08/31 01:37:40;;;;;;;4.03;1.30;;;15.40;99.90;;;;;;4995439;28;20111;-75
2022/08/31 01:40:06;;;;;;;2.83;1.20;;;15.40;99.90;;;;;;4995499;28;20312;-76
2022/08/31 01:42:32;;;;;;;5.13;1.20;;;15.40;99.90;;;;;;4994229;28;20089;-76
2022/08/31 01:44:58;;;;;;;1.77;0.97;;;15.40;99.90;;;;;;4995338;28;20332;-75
2022/08/31 01:47:23;;;;;;;2.43;1.00;;;15.40;99.90;;;;;;4995046;28;20285;-75
2022/08/31 01:49:49;;;;;;;2.43;1.20;;;15.40;99.90;;;;;;4995309;28;20494;-76
2022/08/31 01:52:15;;;;;;;2.23;1.20;;;15.40;99.90;;;;;;4995291;28;20046;-75
2022/08/31 01:54:41;;;;;;;1.90;1.10;;;15.30;99.90;;;;;;4995340;28;20054;-75
2022/08/31 01:57:06;;;;;;;1.90;1.10;;;15.30;99.90;;;;;;4995105;28;20057;-75
2022/08/31 01:59:32;;;;;;;3.13;1.30;;;15.30;99.90;;;;;;4995122;28;20042;-75
2022/08/31 02:01:58;;;;;;;4.63;1.80;;;;;;;;;;4995049;28;20137;-75
2022/08/31 02:04:26;;;;;;;2.93;1.47;;;15.30;99.90;;;;;;4995549;28;20069;-75
2022/08/31 02:06:53;;;;;;;2.57;1.30;;;15.20;99.90;;;;;;4994956;28;20278;-76
2022/08/31 02:09:20;;;;;;;3.90;1.40;;;15.10;99.90;;;;;;4994934;28;20274;-75
2022/08/31 02:11:46;;;;;;;5.47;1.40;;;15.20;99.90;;;;;;4994871;28;20328;-75
2022/08/31 02:14:11;;;;;;;5.43;1.33;;;15.10;99.90;;;;;;4994777;28;20282;-75
2022/08/31 02:16:38;;;;;;;6.87;1.47;;;15.10;99.90;;;;;;4994798;28;20057;-76
2022/08/31 02:19:04;;;;;;;3.50;1.30;;;15.10;99.90;;;;;;4994619;28;20097;-75
2022/08/31 02:21:31;;;;;;;1.93;1.20;;;15.00;99.90;;;;;;4995222;28;20292;-75
2022/08/31 02:23:56;;;;;;;2.90;1.47;;;14.90;99.90;;;;;;4994683;28;20360;-75
2022/08/31 02:26:23;;;;;;;2.70;1.27;;;14.90;99.90;;;;;;4995395;28;20381;-75
2022/08/31 02:28:48;;;;;;;2.90;1.27;;;14.90;99.90;;;;;;4994586;28;20044;-75
2022/08/31 02:31:15;;;;;;;2.83;1.27;;;14.90;99.90;;;;;;4995070;28;20361;-75
2022/08/31 02:33:41;;;;;;;1.60;0.87;;;14.80;99.90;;;;;;4994484;28;20163;-75
2022/08/31 02:36:06;;;;;;;2.50;1.10;;;14.80;99.90;;;;;;4995035;28;20285;-76
2022/08/31 02:38:34;;;;;;;2.93;1.00;;;14.70;99.90;;;;;;4994348;28;20301;-75
2022/08/31 02:41:00;;;;;;;3.43;1.00;;;14.70;99.90;;;;;;4994403;28;20469;-75
2022/08/31 02:43:26;;;;;;;1.93;1.17;;;14.60;99.90;;;;;;4994349;28;20286;-75
2022/08/31 02:45:52;;;;;;;1.60;0.90;;;14.60;99.90;;;;;;4994324;28;20296;-75
2022/08/31 02:48:18;;;;;;;2.73;1.00;;;14.60;99.90;;;;;;4994266;28;20046;-75
2022/08/31 02:50:46;;;;;;;3.33;1.30;;;14.60;99.90;;;;;;4994491;28;20055;-75
2022/08/31 02:53:14;;;;;;;2.93;1.03;;;14.60;99.90;;;;;;4994521;28;20285;-75
2022/08/31 02:55:41;;;;;;;3.30;1.00;;;14.50;99.90;;;;;;4994170;28;20340;-76
2022/08/31 02:58:08;;;;;;;1.83;0.90;;;14.50;99.90;;;;;;4994087;28;20789;-75
2022/08/31 03:00:35;;;;;;;1.50;0.90;;;14.50;99.90;;;;;;4993405;28;20626;-75
2022/08/31 03:03:01;;;;;;;5.03;1.07;;;14.40;99.90;;;;;;4994083;28;20278;-75
2022/08/31 03:05:27;;;;;;;3.30;0.97;;;14.40;99.90;;;;;;4994052;28;20300;-75
2022/08/31 03:07:53;;;;;;;2.50;1.20;;;14.40;99.90;;;;;;4994034;28;20129;-75
2022/08/31 03:10:22;;;;;;;1.77;0.90;;;14.40;99.90;;;;;;4994012;28;20288;-75
2022/08/31 03:12:48;;;;;;;3.53;1.30;;;14.40;99.90;;;;;;4993967;28;20325;-75
2022/08/31 03:15:15;;;;;;;2.87;1.20;;;14.40;99.90;;;;;;4994567;28;20324;-75
2022/08/31 03:17:41;;;;;;;3.63;1.20;;;14.30;99.90;;;;;;4993861;28;20289;-75
2022/08/31 03:20:08;;;;;;;1.77;1.10;;;14.30;99.90;;;;;;4993504;28;20296;-75
2022/08/31 03:22:33;;;;;;;1.93;1.10;;;14.30;99.90;;;;;;4994089;28;20483;-75
2022/08/31 03:24:59;;;;;;;2.50;1.30;;;14.20;99.90;;;;;;4994488;28;20325;-75
2022/08/31 03:27:26;;;;;;;6.17;1.60;;;14.20;99.90;;;;;;4997938;28;20057;-75
2022/08/31 03:29:52;;;;;;;4.17;1.97;;;14.20;99.90;;;;;;4997885;28;20054;-75
2022/08/31 03:32:18;;;;;;;3.83;1.77;;;14.10;99.90;;;;;;4997919;28;20288;-75
2022/08/31 03:34:44;;;;;;;5.47;1.70;;;14.10;99.90;;;;;;4997758;28;20313;-75
2022/08/31 03:37:10;;;;;;;4.37;2.10;;;14.10;99.90;;;;;;4998209;28;20309;-75
2022/08/31 03:39:36;;;;;;;3.63;2.10;;;14.10;99.90;;;;;;4998198;28;20451;-75
2022/08/31 03:42:05;;;;;;;3.70;2.10;;;14.10;99.90;;;;;;4997680;28;20058;-75
2022/08/31 03:44:32;;;;;;;5.93;2.90;;;14.00;99.90;;;;;;4997606;28;20282;-75
2022/08/31 03:46:58;;;;;;;4.77;2.30;;;14.00;99.90;;;;;;4997239;28;20769;-75
2022/08/31 03:49:25;;;;;;;4.40;1.73;;;14.00;99.90;;;;;;4997265;28;20769;-75
2022/08/31 03:51:51;;;;;;;5.70;1.63;;;13.90;99.90;;;;;;4997981;28;20277;-75
2022/08/31 03:54:17;;;;;;;4.50;1.80;;;13.90;99.90;;;;;;4996238;28;20589;-75
2022/08/31 03:56:43;;;;;;;2.77;1.33;;;14.00;99.90;;;;;;4997398;28;20286;-75
2022/08/31 03:59:09;;;;;;;2.80;1.30;;;13.90;99.90;;;;;;4997307;28;20298;-75
2022/08/31 04:01:36;;;;;;;5.00;1.97;;;13.90;99.90;;;;;;4998119;28;20288;-75
2022/08/31 04:04:02;;;;;;;4.43;2.43;;;13.80;99.90;;;;;;4997313;28;20050;-75
2022/08/31 04:06:28;;;;;;;4.27;2.10;;;13.80;99.90;;;;;;4997179;28;20335;-75
2022/08/31 04:08:54;;;;;;;3.67;1.90;;;13.80;99.90;;;;;;4997148;28;20050;-75
2022/08/31 04:11:20;;;;;;;4.50;2.37;;;13.80;99.90;;;;;;4997106;28;20293;-75
2022/08/31 04:13:46;;;;;;;3.73;1.87;;;13.80;99.90;;;;;;4997077;28;20284;-75
2022/08/31 04:16:14;;;;;;;6.70;2.47;;;13.80;99.90;;;;;;4996769;28;20285;-74
2022/08/31 04:18:42;;;;;;;6.33;2.20;;;13.70;99.90;;;;;;4996623;28;20137;-74
2022/08/31 04:21:18;;;;;;;6.90;3.20;;;13.70;99.90;;;;;;4996809;28;20294;-75
2022/08/31 04:23:45;;;;;;;5.60;2.90;;;13.70;99.90;;;;;;4996983;28;20292;-75
2022/08/31 04:26:23;;;;;;;3.40;1.60;;;13.70;99.90;;;;;;4996818;28;20277;-75
2022/08/31 04:28:49;;;;;;;3.57;1.50;;;13.60;99.90;;;;;;4996122;28;20290;-75
2022/08/31 04:31:16;;;;;;;2.57;1.30;;;13.70;99.90;;;;;;4997335;28;20308;-75
2022/08/31 04:33:43;;;;;;;5.90;1.50;;;13.60;99.90;;;;;;4996959;28;20294;-75
2022/08/31 04:36:11;;;;;;;3.07;1.67;;;13.60;99.90;;;;;;4996161;28;20599;-75
2022/08/31 04:38:37;;;;;;;3.00;1.63;;;13.60;99.90;;;;;;4996532;28;20305;-75
2022/08/31 04:41:05;;;;;;;5.43;1.93;;;13.60;99.90;;;;;;4997100;28;20286;-75
2022/08/31 04:43:31;;;;;;;4.53;2.10;;;13.60;99.90;;;;;;4996581;28;20067;-75
2022/08/31 04:45:57;;;;;;;3.73;1.90;;;13.60;99.90;;;;;;4995276;28;20340;-75
2022/08/31 04:48:23;;;;;;;4.57;2.00;;;13.60;99.90;;;;;;4996469;28;20285;-75
2022/08/31 04:50:49;;;;;;;3.90;1.93;;;13.60;99.90;;;;;;4996097;28;20761;-75
2022/08/31 04:53:16;;;;;;;4.37;2.07;;;13.60;99.90;;;;;;4996561;28;20548;-75
2022/08/31 04:55:42;;;;;;;4.43;2.00;;;13.60;99.90;;;;;;4996308;28;20373;-75
2022/08/31 04:58:08;;;;;;;5.63;1.77;;;13.60;99.90;;;;;;4996477;28;20305;-75
2022/08/31 05:00:34;;;;;;;6.03;1.80;;;13.60;99.90;;;;;;4996983;28;20281;-75
2022/08/31 05:03:00;;;;;;;3.57;1.77;;;13.60;99.90;;;;;;4996201;28;20281;-75
2022/08/31 05:05:25;;;;;;;4.57;2.20;;;13.60;99.90;;;;;;4996201;28;20300;-75
2022/08/31 05:07:51;;;;;;;4.30;2.20;;;13.50;99.90;;;;;;4996093;28;20403;-75
2022/08/31 05:10:17;;;;;;;5.20;2.43;;;13.60;99.90;;;;;;4996383;28;20510;-76
2022/08/31 05:12:43;;;;;;;4.97;2.30;;;13.50;99.90;;;;;;4995973;28;20214;-75
2022/08/31 05:15:09;;;;;;;4.43;2.40;;;13.50;99.90;;;;;;4995979;28;20402;-75
2022/08/31 05:17:35;;;;;;;5.07;2.53;;;13.60;99.90;;;;;;4995874;28;20141;-75
2022/08/31 05:20:01;;;;;;;5.63;2.50;;;13.60;99.90;;;;;;4996115;28;20325;-75
2022/08/31 05:22:28;;;;;;;5.57;1.97;;;13.50;99.90;;;;;;4995868;28;20054;-75
2022/08/31 05:24:54;;;;;;;4.40;2.47;;;13.60;99.90;;;;;;4996360;28;20486;-75
2022/08/31 05:27:20;;;;;;;8.90;2.20;;;13.60;99.90;;;;;;4996210;28;20285;-75
2022/08/31 05:29:45;;;;;;;5.37;2.50;;;13.60;99.90;;;;;;4995630;28;20046;-75
2022/08/31 05:32:11;;;;;;;4.57;2.10;;;13.60;99.90;;;;;;4995643;28;20133;-75
2022/08/31 05:34:37;;;;;;;4.67;1.77;;;13.70;99.90;;;;;;4996143;28;20054;-75
2022/08/31 05:37:03;;;;;;;4.33;1.70;;;13.70;99.90;;;;;;4995559;28;20094;-75
2022/08/31 05:39:30;;;;;;;3.27;1.83;;;13.80;99.90;;;;;;4995471;28;20093;-75
2022/08/31 05:41:56;;;;;;;5.03;1.50;;;13.80;99.90;;;;;;4995385;28;20285;-75
2022/08/31 05:44:22;;;;;;;4.60;1.50;;;13.90;99.90;;;;;;4995383;28;20347;-75
2022/08/31 05:46:48;;;;;;;4.10;1.77;;;14.00;99.90;;;;;;4995376;28;20050;-75
2022/08/31 05:49:14;;;;;;;5.37;1.40;;;14.00;99.90;;;;;;4993251;28;20046;-75
2022/08/31 05:51:40;;;;;;;2.50;1.40;;;14.10;99.90;;;;;;4995249;28;20282;-75
2022/08/31 05:54:06;;;;;;;6.43;1.50;;;14.10;99.90;;;;;;4994503;28;20278;-75
2022/08/31 05:56:33;;;;;;;3.30;1.40;;;14.20;99.90;;;;;;4995250;28;20133;-75
2022/08/31 05:58:59;;;;;;;4.17;1.50;;;14.30;99.90;;;;;;4994182;28;20301;-75
2022/08/31 06:01:31;;;;;;;4.33;1.40;;;14.40;99.90;;;;;;4995025;28;20281;-75
2022/08/31 06:03:58;;;;;;;6.50;1.40;;;14.40;99.90;;;;;;4995770;28;20447;-75
2022/08/31 06:06:25;;;;;;;5.10;1.33;;;14.50;99.90;;;;;;4994998;28;20308;-75
2022/08/31 06:08:51;;;;;;;2.97;1.60;;;14.60;99.90;;;;;;4993658;28;20793;-75
2022/08/31 06:11:20;;;;;;;6.10;1.90;;;14.70;99.90;;;;;;4995399;28;20364;-75
2022/08/31 06:13:51;;;;;;;3.87;1.73;;;14.80;99.90;;;;;;4993635;28;20372;-75
2022/08/31 06:16:17;;;;;;;6.87;1.53;;;15.10;99.90;;;;;;4994630;28;20610;-75
2022/08/31 06:18:50;;;;;;;3.57;1.33;;;16.40;99.90;;;;;;4994576;28;20300;-76
2022/08/31 06:21:19;;;;;;;3.37;1.23;;;18.00;99.90;;;;;;4993358;28;20327;-76
2022/08/31 06:23:47;;;;;;;2.77;1.60;;;19.40;99.90;;;;;;4994832;28;20853;-76
2022/08/31 06:26:14;;;;;;;2.87;1.53;;;20.70;99.90;;;;;;4994411;28;20587;-75
2022/08/31 06:28:48;;;;;;;3.20;1.43;;;21.60;97.50;;;;;;4994503;28;20124;-76
2022/08/31 06:31:17;;;;;;;2.70;1.37;;;;;;;;;;4994987;28;20050;-76
2022/08/31 06:33:43;;;;;;;3.83;1.27;;;;;;;;;;4994903;28;20108;-76
2022/08/31 06:36:14;;;;;;;2.53;1.30;;;23.50;71.70;;;;;;4994113;28;20395;-76
2022/08/31 06:38:42;;;;;;;3.37;1.50;;;23.90;62.20;;;;;;4977331;28;20053;-76
2022/08/31 06:41:17;;;;;;;6.60;1.63;;;24.30;60.50;;;;;;4993368;28;20061;-76
2022/08/31 06:43:43;;;;;;;4.30;1.70;;;24.50;61.20;;;;;;4994380;28;20129;-76
2022/08/31 06:46:10;;;;;;;2.27;1.50;;;;;;;;;;4994258;28;20092;-76
2022/08/31 06:48:37;;;;;;;2.80;1.47;;;25.50;57.30;;;;;;4994715;28;20053;-76
2022/08/31 06:51:05;;;;;;;5.33;1.60;;;25.80;58.50;;;;;;4994678;28;20046;-76
2022/08/31 06:53:33;;;;;;;3.67;1.50;;;26.60;57.40;;;;;;4994129;28;20090;-76
2022/08/31 06:56:07;;;;;;;3.77;1.57;;;26.50;54.80;;;;;;4994397;28;20156;-74
2022/08/31 06:58:33;;;;;;;3.00;1.48;;;26.60;53.00;;;;;;4994201;28;20078;-73
2022/08/31 07:01:06;;;;;;;2.83;1.33;;;;;;;;;;4994208;28;20479;-74
2022/08/31 07:03:36;;;;;;;2.23;1.30;;;;;;;;;;4993955;28;20055;-73
2022/08/31 07:06:04;;;;;;;2.97;1.23;;;;;;;;;;4994080;28;20060;-74
2022/08/31 07:08:31;;;;;;;2.53;1.27;;;;;;;;;;4993895;28;20438;-74
2022/08/31 07:10:58;;;;;;;3.87;1.23;;;;;;;;;;4993993;28;20046;-74
2022/08/31 07:13:24;;;;;;;3.33;1.30;;;;;;;;;;4994284;28;20046;-73
2022/08/31 07:15:50;;;;;;;2.13;1.10;;;;;;;;;;4993907;28;20506;-72
2022/08/31 07:18:16;;;;;;;2.53;1.27;;;;;;;;;;4992503;28;20176;-74
2022/08/31 07:20:42;;;;;;;1.87;1.10;;;;;;;;;;4993850;28;20058;-75
2022/08/31 07:23:08;;;;;;;3.63;1.00;;;;;;;;;;4994078;28;20054;-74
2022/08/31 07:25:38;;;;;;;2.37;1.10;;;;;;;;;;4993859;28;20046;-73
2022/08/31 07:28:04;;;;;;;3.37;1.07;;;28.00;44.30;;;;;;4993839;28;20046;-73
2022/08/31 07:30:35;;;;;;;3.20;1.10;;;27.50;44.40;;;;;;4993844;28;20147;-73
2022/08/31 07:33:03;;;;;;;2.83;1.20;;;27.50;44.70;;;;;;4993880;28;20125;-73
2022/08/31 07:35:30;;;;;;;1.93;1.20;;;27.40;45.00;;;;;;4993820;28;20101;-73
2022/08/31 07:43:25;;;;;;;;;;;28.60;43.60;;;;;;4994306;28;20051;-76
2022/08/31 07:45:51;;;;;;;2.60;1.20;;;;;;;;;;4993772;28;19929;-76
2022/08/31 07:48:17;;;;;;;2.80;1.20;;;27.70;42.20;;;;;;4992691;28;20458;-83
2022/08/31 07:50:45;;;;;;;1.73;1.00;;;;;;;;;;4993857;28;20054;-77
2022/08/31 07:53:13;;;;;;;2.43;1.20;;;26.80;43.30;;;;;;4993833;28;20055;-76
2022/08/31 07:55:40;;;;;;;2.40;1.10;;;27.10;44.30;;;;;;4977657;28;20378;-77
2022/08/31 07:58:14;;;;;;;5.03;1.13;;;;;;;;;;4992613;28;20050;-76
2022/08/31 08:00:41;;;;;;;3.05;1.10;;;25.70;45.40;;;;;;4994422;28;20434;-76
2022/08/31 08:03:09;;;;;;;4.33;1.17;;;;;;;;;;4993152;28;20491;-75
2022/08/31 08:05:37;;;;;;;3.83;1.00;;;23.80;48.90;;;;;;4992635;28;20050;-76
2022/08/31 08:08:04;;;;;;;3.53;1.00;;;23.00;50.80;;;;;;4993558;28;20057;-76
2022/08/31 08:10:32;;;;;;;5.37;1.03;;;22.60;51.90;;;;;;4993576;28;20085;-77
2022/08/31 08:13:02;;;;;;;6.07;1.10;;;22.50;53.20;;;;;;4996919;28;20050;-76
2022/08/31 08:15:29;;;;;;;4.33;1.47;;;22.20;53.20;;;;;;4996979;28;20525;-80
2022/08/31 08:17:55;;;;;;;4.10;1.10;;;22.00;53.70;;;;;;4997588;28;20378;-76
2022/08/31 08:20:21;;;;;;;3.23;1.20;;;21.70;54.60;;;;;;4995416;28;20054;-76
2022/08/31 08:22:47;;;;;;;2.10;1.10;;;21.60;55.20;;;;;;4997013;28;20050;-75
2022/08/31 08:25:13;;;;;;;2.07;1.20;;;21.40;55.30;;;;;;4998054;28;20050;-86
2022/08/31 08:27:39;;;;;;;1.77;1.00;;;21.20;56.40;;;;;;4997246;28;20038;-75
2022/08/31 08:30:07;;;;;;;2.00;1.03;;;21.10;57.20;;;;;;4995713;28;20055;-75
2022/08/31 08:32:34;;;;;;;3.00;1.20;;;21.00;58.20;;;;;;4996830;28;20479;-77
2022/08/31 08:35:00;;;;;;;3.83;1.33;;;21.00;58.90;;;;;;4996797;28;20050;-77
2022/08/31 08:37:26;;;;;;;3.20;1.10;;;21.00;59.10;;;;;;4995607;28;20137;-76
2022/08/31 08:39:52;;;;;;;7.97;1.40;;;20.80;59.90;;;;;;4996306;28;20415;-77
2022/08/31 08:42:20;;;;;;;4.07;1.10;;;20.80;60.90;;;;;;4996618;28;20058;-76
2022/08/31 08:44:46;;;;;;;6.53;1.80;;;20.60;61.50;;;;;;4996570;28;20082;-77
2022/08/31 08:47:19;;;;;;;4.63;1.17;;;20.60;61.60;;;;;;4996521;28;20514;-77
2022/08/31 08:49:49;;;;;;;2.77;1.03;;;20.60;62.50;;;;;;4996684;28;20062;-76
2022/08/31 08:52:40;;;;;;;2.10;1.00;;;20.60;62.50;;;;;;4996313;28;20054;-77
2022/08/31 08:55:15;;;;;;;2.37;1.00;;;20.60;63.40;;;;;;4996423;28;20050;-77
2022/08/31 08:57:42;;;;;;;3.10;1.30;;;20.60;63.80;;;;;;4996341;28;20061;-77
2022/08/31 09:00:24;;;;;;;3.57;1.00;;;20.50;64.50;;;;;;4996426;28;20054;-77
2022/08/31 09:03:03;;;;;;;2.00;1.00;;;20.50;65.20;;;;;;4997166;28;20395;-79
2022/08/31 09:06:08;;;;;;;3.40;1.27;;;20.50;65.40;;;;;;4996820;28;20081;-79
2022/08/31 09:08:54;;;;;;;3.63;1.20;;;20.50;65.50;;;;;;4978643;28;20105;-79
2022/08/31 09:11:37;;;;;;;2.87;1.00;;;20.50;64.90;;;;;;4996848;28;20085;-80
2022/08/31 09:14:25;;;;;;;1.67;0.90;;;20.60;64.30;;;;;;4996071;28;20383;-79
2022/08/31 09:16:56;;;;;;;4.27;1.00;;;20.60;64.20;;;;;;4996211;28;20474;-79
2022/08/31 09:19:22;;;;;;;3.53;1.17;;;20.50;64.60;;;;;;4996345;28;20069;-82
2022/08/31 09:21:54;;;;;;;4.13;1.10;;;20.50;65.20;;;;;;4996232;28;20398;-79
2022/08/31 09:24:26;;;;;;;6.13;1.20;;;20.50;65.00;;;;;;4996071;28;20090;-78
2022/08/31 09:27:18;;;;;;;4.77;1.10;;;20.50;65.30;;;;;;4997830;28;20096;-82
2022/08/31 09:29:56;;;;;;;2.93;1.17;;;20.50;65.70;;;;;;4995435;28;20510;-80
2022/08/31 09:32:27;;;;;;;2.20;1.10;;;20.50;64.50;;;;;;4995937;28;20046;-82
2022/08/31 09:34:57;;;;;;;3.07;1.10;;;20.50;63.60;;;;;;4996378;28;20125;-81
2022/08/31 09:37:32;;;;;;;2.73;0.90;;;20.50;63.80;;;;;;4994055;28;20053;-79
2022/08/31 09:40:13;;;;;;;3.30;1.25;;;20.50;64.80;;;;;;4995079;28;20038;-79
2022/08/31 09:42:40;;;;;;;2.87;1.00;;;20.50;63.50;;;;;;4993855;28;20121;-81
2022/08/31 09:45:15;;;;;;;3.30;0.90;;;20.50;63.00;;;;;;4993775;28;20053;-80
2022/08/31 09:47:47;;;;;;;3.23;0.97;;;20.50;63.80;;;;;;4994652;28;20034;-78
2022/08/31 09:50:23;;;;;;;3.33;1.30;;;20.60;63.90;;;;;;4994630;28;20125;-79
2022/08/31 09:55:33;;;;;;;4.65;1.10;;;20.70;63.70;;;;;;4994778;28;20054;-78
2022/08/31 09:58:03;;;;;;;2.70;1.00;;;20.80;63.70;;;;;;4994372;28;20501;-78
2022/08/31 10:00:41;;;;;;;3.30;1.30;;;20.90;63.50;;;;;;4993970;28;20055;-78
2022/08/31 10:03:27;;;;;;;6.20;1.53;;;21.00;62.90;;;;;;4993784;28;20261;-80
2022/08/31 10:05:54;;;;;;;7.60;1.50;;;21.00;63.00;;;;;;4994404;28;20050;-80
2022/08/31 10:08:45;;;;;;;5.13;1.10;;;21.10;61.90;;;;;;4994276;28;20053;-80
2022/08/31 10:11:16;;;;;;;1.67;0.97;;;21.10;61.30;;;;;;4993982;28;20046;-80
2022/08/31 10:13:52;;;;;;;4.53;1.37;;;21.10;61.60;;;;;;4993343;28;20046;-81
2022/08/31 10:16:35;;;;;;;9.00;1.47;;;21.10;60.80;;;;;;4994073;28;20066;-80
2022/08/31 10:19:05;;;;;;;7.93;1.20;;;21.10;61.90;;;;;;4993251;28;20049;-81
2022/08/31 10:21:38;;;;;;;2.20;1.07;;;21.10;61.30;;;;;;4994356;28;20050;-80
2022/08/31 10:24:38;;;;;;;2.08;0.88;;;21.10;60.40;;;;;;4994259;28;20086;-79
2022/08/31 10:27:11;;;;;;;6.63;1.33;;;21.20;61.10;;;;;;4994270;28;20054;-80
2022/08/31 10:29:53;;;;;;;4.37;1.20;;;21.20;61.50;;;;;;4993236;28;20482;-80
2022/08/31 10:32:38;;;;;;;3.30;1.10;;;21.40;62.20;;;;;;4994116;28;20042;-76
2022/08/31 10:35:11;;;;;;;3.28;1.10;;;21.50;61.00;;;;;;4993892;28;20054;-75
2022/08/31 10:37:56;;;;;;;4.93;1.20;;;21.50;59.30;;;;;;4994453;28;20208;-79
2022/08/31 10:40:39;;;;;;;3.83;1.33;;;21.60;58.60;;;;;;4994506;28;20054;-82
2022/08/31 10:43:21;;;;;;;3.60;1.20;;;21.50;59.10;;;;;;4994119;28;20054;-78
2022/08/31 10:45:52;;;;;;;4.50;1.20;;;21.50;58.00;;;;;;4992915;28;20622;-77
2022/08/31 10:48:23;;;;;;;3.17;1.53;;;21.40;58.00;;;;;;4994820;28;20399;-78
2022/08/31 10:51:19;;;;;;;3.93;1.03;;;21.30;58.30;;;;;;4995174;28;20415;-80
2022/08/31 10:53:51;;;;;;;5.17;1.00;;;21.30;58.80;;;;;;4993092;28;20080;-78
2022/08/31 10:56:43;;;;;;;6.20;1.20;;;21.40;59.10;;;;;;4993976;28;20126;-78
2022/08/31 10:59:44;;;;;;;3.57;1.00;;;21.40;58.30;;;;;;4994516;28;20091;-78
2022/08/31 11:02:31;;;;;;;2.57;1.00;;;21.40;58.30;;;;;;4983389;28;20086;-80
2022/08/31 11:05:35;;;;;;;3.33;1.13;;;21.40;57.90;;;;;;4994327;28;20046;-82
2022/08/31 11:08:20;;;;;;;2.90;1.20;;;21.40;58.00;;;;;;4992918;28;20486;-79
2022/08/31 11:10:52;;;;;;;5.73;1.30;;;21.50;59.00;;;;;;4993791;28;20381;-80
2022/08/31 11:13:34;;;;;;;4.20;1.27;;;21.50;58.80;;;;;;4992914;28;20054;-78
2022/08/31 11:16:26;;;;;;;6.53;1.10;;;21.50;58.30;;;;;;4993879;28;20049;-78
2022/08/31 11:19:32;;;;;;;2.47;1.00;;;21.40;58.70;;;;;;4992741;28;20046;-79
2022/08/31 11:22:16;;;;;;;3.90;1.05;;;21.50;58.80;;;;;;4992209;28;20085;-79
2022/08/31 11:25:14;;;;;;;5.33;1.20;;;21.50;58.60;;;;;;4993369;28;20047;-78
2022/08/31 11:27:49;;;;;;;4.63;1.20;;;21.60;58.60;;;;;;4993906;28;20054;-77
2022/08/31 11:30:26;;;;;;;3.77;1.00;;;21.60;58.30;;;;;;4993681;28;20050;-78
2022/08/31 11:33:05;;;;;;;2.93;0.90;;;21.60;58.40;;;;;;4993945;28;20102;-75
2022/08/31 11:35:59;;;;;;;4.57;1.40;;;21.50;58.60;;;;;;4993794;28;20061;-78
2022/08/31 11:38:55;;;;;;;2.00;1.00;;;21.60;58.90;;;;;;4994743;28;20054;-81
2022/08/31 11:41:30;;;;;;;4.13;0.93;;;21.60;57.50;;;;;;4994543;28;20134;-76
2022/08/31 11:43:56;;;;;;;2.80;0.90;;;21.70;57.60;;;;;;4993841;28;20054;-75
2022/08/31 11:46:24;;;;;;;2.43;1.00;;;21.80;57.90;;;;;;4994967;28;20085;-78
2022/08/31 11:48:50;;;;;;;7.80;1.20;;;21.80;58.90;;;;;;4996764;28;20046;-79
2022/08/31 11:51:41;;;;;;;3.67;1.20;;;21.70;59.30;;;;;;4995986;28;20051;-76
2022/08/31 11:54:34;;;;;;;3.93;1.10;;;21.70;59.50;;;;;;4996996;28;20081;-77
2022/08/31 11:57:02;;;;;;;11.47;1.20;;;21.70;59.80;;;;;;4996983;28;20138;-79
2022/08/31 11:59:32;;;;;;;6.70;1.13;;;21.80;59.20;;;;;;4997628;28;20199;-77
2022/08/31 12:02:17;;;;;;;6.67;1.20;;;21.90;58.80;;;;;;4997919;28;20058;-78
2022/08/31 12:04:46;;;;;;;3.87;1.10;;;21.90;59.10;;;;;;4998013;28;20046;-77
2022/08/31 12:07:25;;;;;;;4.93;1.23;;;22.00;58.20;;;;;;4997292;28;20062;-77
2022/08/31 12:10:20;;;;;;;7.60;1.33;;;21.90;57.60;;;;;;4997526;28;20372;-77
2022/08/31 12:13:08;;;;;;;3.58;0.93;;;22.00;58.30;;;;;;4986429;28;20446;-77
2022/08/31 12:15:59;;;;;;;4.57;1.17;;;21.90;58.10;;;;;;4996457;28;20451;-77
2022/08/31 12:18:38;;;;;;;1.53;0.90;;;21.90;58.10;;;;;;4996840;28;20049;-77
2022/08/31 12:24:19;;;;;;;3.87;1.10;;;21.80;57.30;;;;;;4997542;28;20061;-81
2022/08/31 12:27:17;;;;;;;4.25;1.10;;;21.60;57.90;;;;;;4996836;28;20129;-81
2022/08/31 12:29:43;;;;;;;4.53;1.20;;;21.70;57.40;;;;;;4996875;28;20038;-82
2022/08/31 12:32:30;;;;;;;2.00;1.03;;;21.70;57.60;;;;;;4996187;28;20060;-81
2022/08/31 12:35:19;;;;;;;3.00;1.10;;;21.70;57.50;;;;;;4996831;28;20097;-82
2022/08/31 12:38:06;;;;;;;3.40;1.00;;;21.70;57.30;;;;;;4997443;28;20399;-79
2022/08/31 12:40:42;;;;;;;3.27;1.13;;;21.80;57.20;;;;;;4996713;28;20057;-78
2022/08/31 12:43:16;;;;;;;2.67;1.30;;;21.70;56.90;;;;;;4996762;28;20139;-78
2022/08/31 12:46:01;;;;;;;7.15;1.10;;;21.70;56.10;;;;;;4996640;28;20046;-78
2022/08/31 12:48:56;;;;;;;4.20;1.13;;;21.80;55.80;;;;;;4997331;28;20050;-78
2022/08/31 12:51:40;;;;;;;;;;;21.90;55.80;;;;;;4997238;28;20509;-78
2022/08/31 12:54:43;;;;;;;2.67;1.20;;;21.80;55.10;;;;;;4996446;28;19921;-77
2022/08/31 12:57:17;;;;;;;3.03;1.00;;;21.90;54.30;;;;;;4995941;28;20505;-76
2022/08/31 12:59:55;;;;;;;5.82;1.05;;;21.90;54.60;;;;;;4997083;28;20053;-78
2022/08/31 13:02:22;;;;;;;3.03;1.10;;;21.90;55.20;;;;;;4997009;28;20054;-78
2022/08/31 13:04:48;;;;;;;2.17;1.20;;;21.80;55.40;;;;;;4996121;28;20104;-79
2022/08/31 13:07:22;;;;;;;3.43;1.10;;;21.80;55.70;;;;;;4996242;28;20046;-79
2022/08/31 13:10:09;;;;;;;2.17;1.13;;;21.80;55.90;;;;;;4996353;28;20050;-78
2022/08/31 13:12:36;;;;;;;1.67;0.87;;;21.90;55.60;;;;;;4995654;28;20113;-79
2022/08/31 13:15:02;;;;;;;2.10;1.00;;;22.00;55.40;;;;;;4995139;28;20046;-78
2022/08/31 13:17:35;;;;;;;2.93;1.20;;;22.10;54.60;;;;;;4995819;28;20090;-79
2022/08/31 13:20:01;;;;;;;4.87;1.20;;;22.00;54.00;;;;;;4995864;28;20065;-79
2022/08/31 13:22:38;;;;;;;1.97;1.00;;;22.10;54.10;;;;;;4995946;28;20046;-78
2022/08/31 13:25:35;;;;;;;4.73;1.10;;;22.10;54.10;;;;;;4995188;28;20054;-78
2022/08/31 13:28:29;;;;;;;2.00;1.00;;;22.10;52.90;;;;;;4995896;28;20042;-78
2022/08/31 13:31:01;;;;;;;2.83;1.10;;;22.00;52.50;;;;;;4989357;28;20162;-78